Time;durP1;ratioP1;P1;durP2;ratioP2;P2;SDS_P1;SDS_P2;PMS_P1;PMS_P2;Temp;Humidity;BMP_temperature;BMP_pressure;BME280_temperature;BME280_humidity;BME280_pressure;Samples;Min_cycle;Max_cycle;Signal;HPM_P1;HPM_P2
2023/12/10 00:02:15;;;;;;;121.28;5.18;;;;;;;19.44;54.94;97816.72;7309177;19;130155;-43
2023/12/10 00:04:41;;;;;;;55.47;3.53;;;;;;;19.47;54.72;97820.75;7309920;19;130940;-40
2023/12/10 00:07:06;;;;;;;65.22;3.38;;;;;;;19.48;54.77;97823.19;7309085;19;129118;-41
2023/12/10 00:09:31;;;;;;;108.40;5.00;;;;;;;19.48;54.79;97825.81;7307417;19;129354;-40
2023/12/10 00:11:57;;;;;;;91.10;4.43;;;;;;;19.40;55.14;97828.44;7310413;19;130032;-41
2023/12/10 00:14:24;;;;;;;85.90;4.55;;;;;;;19.43;54.66;97830.75;7307515;19;131453;-39
2023/12/10 00:16:49;;;;;;;107.13;5.00;;;;;;;19.44;55.22;97832.34;7307561;19;129974;-42
2023/12/10 00:19:15;;;;;;;164.77;7.35;;;;;;;19.42;55.22;97825.66;7302257;19;129747;-40
2023/12/10 00:21:40;;;;;;;65.15;3.42;;;;;;;19.37;54.63;97818.38;7310307;19;129471;-41
2023/12/10 00:24:06;;;;;;;79.78;4.20;;;;;;;19.45;55.00;97822.75;7310839;19;129116;-38
2023/12/10 00:26:31;;;;;;;155.10;7.45;;;;;;;19.47;54.66;97822.59;7314335;19;129220;-40
2023/12/10 00:28:56;;;;;;;118.85;5.40;;;;;;;19.41;54.88;97817.06;7315298;19;129720;-41
2023/12/10 00:31:22;;;;;;;90.00;4.28;;;;;;;19.44;55.11;97816.72;7316567;19;130162;-43
2023/12/10 00:33:47;;;;;;;70.75;3.85;;;;;;;19.44;54.86;97824.53;7315782;19;129609;-39
2023/12/10 00:36:15;;;;;;;69.60;3.75;;;;;;;19.43;54.75;97817.72;7314796;19;129302;-41
2023/12/10 00:38:40;;;;;;;120.35;5.32;;;;;;;19.44;55.13;97824.53;7311343;19;129269;-41
2023/12/10 00:41:08;;;;;;;56.47;3.10;;;;;;;19.29;54.84;97794.94;7315503;19;130320;-37
2023/12/10 00:43:34;;;;;;;71.95;3.83;;;;;;;19.43;54.68;97819.50;7314299;19;130446;-39
2023/12/10 00:45:59;;;;;;;54.30;3.10;;;;;;;19.44;54.86;97808.09;7314754;19;131428;-38
2023/12/10 00:48:24;;;;;;;122.93;5.63;;;;;;;19.44;54.95;97816.72;7306628;19;131122;-40
2023/12/10 00:50:50;;;;;;;74.25;3.67;;;;;;;19.47;54.65;97818.16;7314280;19;130390;-39
2023/12/10 00:53:15;;;;;;;83.53;3.88;;;;;;;19.45;54.68;97809.72;7309604;19;130690;-40
2023/12/10 00:55:40;;;;;;;101.90;4.75;;;;;;;19.44;55.06;97832.34;7313287;19;129443;-41
2023/12/10 00:58:06;;;;;;;106.22;4.80;;;;;;;19.47;54.55;97823.38;7312774;19;128899;-40
2023/12/10 01:00:31;;;;;;;80.07;4.13;;;;;;;19.44;54.61;97824.53;7313819;19;130147;-39
2023/12/10 01:02:57;;;;;;;52.75;3.13;;;;;;;19.43;54.80;97828.13;7313902;19;131039;-41
2023/12/10 01:05:22;;;;;;;139.05;5.85;;;;;;;19.45;54.91;97820.94;7312629;19;128888;-39
2023/12/10 01:07:47;;;;;;;73.78;3.70;;;;;;;19.29;55.26;97802.78;7314098;19;129140;-40
2023/12/10 01:10:13;;;;;;;84.40;3.95;;;;;;;19.47;54.95;97827.78;7312886;19;130319;-41
2023/12/10 01:12:39;;;;;;;54.40;3.10;;;;;;;19.48;54.40;97829.41;7313503;19;130440;-40
2023/12/10 01:15:05;;;;;;;126.80;5.63;;;;;;;19.41;55.05;97839.69;7314157;19;129485;-38
2023/12/10 01:17:33;;;;;;;99.40;4.78;;;;;;;19.40;55.05;97844.09;7313358;19;129073;-42
2023/12/10 01:20:00;;;;;;;59.88;3.40;;;;;;;19.41;54.73;97850.13;7314193;19;130345;-41
2023/12/10 01:22:25;;;;;;;100.60;4.78;;;;;;;19.44;55.32;97852.38;7313327;19;130373;-39
2023/12/10 01:24:52;;;;;;;114.60;4.80;;;;;;;19.30;54.95;97827.81;7313380;19;130046;-39
2023/12/10 01:27:18;;;;;;;64.05;3.42;;;;;;;19.24;54.76;97823.28;7314250;19;129058;-40
2023/12/10 01:29:43;;;;;;;63.35;3.08;;;;;;;19.42;55.30;97857.75;7314529;19;130943;-41
2023/12/10 01:32:10;;;;;;;46.53;2.88;;;;;;;19.48;55.07;97865.88;7313370;19;130545;-40
2023/12/10 01:34:35;;;;;;;;;;;;;;;19.45;56.15;97865.25;7312589;19;130386;-40
2023/12/10 01:37:01;;;;;;;77.10;3.75;;;;;;;19.44;55.19;97863.63;7314922;19;131709;-41
2023/12/10 01:39:26;;;;;;;80.85;3.72;;;;;;;19.45;54.77;97852.22;7310804;19;131171;-40
2023/12/10 01:41:51;;;;;;;45.38;2.35;;;;;;;19.47;54.69;97859.84;7312624;19;129550;-41
2023/12/10 01:44:17;;;;;;;139.75;5.93;;;;;;;19.43;55.15;97866.41;7311571;19;129516;-41
2023/12/10 01:46:45;;;;;;;113.53;5.53;;;;;;;19.43;55.08;97862.00;7313318;19;129699;-39
2023/12/10 01:49:10;;;;;;;110.28;4.72;;;;;;;19.44;54.71;97865.41;7311999;19;132058;-40
2023/12/10 01:51:36;;;;;;;61.35;3.33;;;;;;;19.45;55.20;97862.63;7310838;19;130311;-40
2023/12/10 01:54:02;;;;;;;128.80;5.33;;;;;;;19.27;54.56;97838.56;7313190;19;129312;-40
2023/12/10 01:56:30;;;;;;;142.02;6.10;;;;;;;19.42;55.31;97870.78;7309608;19;129505;-41
2023/12/10 01:58:56;;;;;;;62.50;3.33;;;;;;;19.38;54.58;97861.69;7310564;19;130958;-41
2023/12/10 02:01:23;;;;;;;42.23;2.80;;;;;;;19.45;55.34;97883.47;7313623;19;129155;-38
2023/12/10 02:03:50;;;;;;;107.43;4.80;;;;;;;19.44;54.80;97881.88;7312341;19;128965;-40
2023/12/10 02:06:15;;;;;;;55.88;2.95;;;;;;;19.45;54.69;97873.06;7314281;19;129284;-38
2023/12/10 02:08:41;;;;;;;85.35;4.13;;;;;;;19.40;54.70;97885.78;7307210;19;130778;-40
2023/12/10 02:11:06;;;;;;;67.82;3.42;;;;;;;19.43;54.78;97892.47;7312846;19;130401;-40
2023/12/10 02:13:31;;;;;;;148.85;6.50;;;;;;;19.31;54.90;97871.16;7312853;19;129211;-42
2023/12/10 02:15:57;;;;;;;59.03;3.42;;;;;;;19.44;55.40;97883.66;7312850;19;129289;-38
2023/12/10 02:18:22;;;;;;;34.42;2.33;;;;;;;19.41;55.48;97889.22;7309576;19;129329;-40
2023/12/10 02:20:48;;;;;;;98.13;4.28;;;;;;;19.43;55.45;97889.84;7312193;19;130431;-37
2023/12/10 02:23:46;;;;;;;81.93;3.87;;;;;;;19.40;55.50;97880.56;7314220;19;129114;-39
2023/12/10 02:26:12;;;;;;;118.22;4.90;;;;;;;19.26;55.11;97862.19;7312121;19;129243;-38
2023/12/10 02:28:38;;;;;;;101.03;4.50;;;;;;;19.28;54.93;97860.22;7310603;19;130110;-40
2023/12/10 02:31:03;;;;;;;62.27;3.10;;;;;;;19.47;54.76;97890.34;7309098;19;133308;-39
2023/12/10 02:33:29;;;;;;;70.18;3.70;;;;;;;19.40;55.00;97888.38;7311862;19;129041;-40
2023/12/10 02:35:55;;;;;;;138.80;5.80;;;;;;;19.39;55.44;97884.16;7313585;19;129098;-39
2023/12/10 02:38:21;;;;;;;20.53;1.63;;;;;;;19.41;55.42;97874.41;7311207;19;131193;-38
2023/12/10 02:40:47;;;;;;;44.73;2.43;;;;;;;19.43;55.37;97884.66;7312720;19;130370;-41
2023/12/10 02:43:13;;;;;;;48.38;2.47;;;;;;;19.25;54.75;97861.34;7310511;19;129570;-41
2023/12/10 02:45:38;;;;;;;136.60;5.78;;;;;;;19.38;55.38;97895.56;7312010;19;129072;-42
2023/12/10 02:48:04;;;;;;;47.88;2.80;;;;;;;19.38;55.57;97898.19;7309447;19;130608;-37
2023/12/10 02:50:29;;;;;;;35.65;2.10;;;;;;;19.34;55.54;97876.03;7311795;19;130417;-38
2023/12/10 02:52:55;;;;;;;105.80;4.63;;;;;;;19.38;54.89;97890.38;7310391;19;131569;-38
2023/12/10 02:55:20;;;;;;;222.05;9.38;;;;;;;19.38;54.93;97890.38;7310332;19;130405;-39
2023/12/10 02:57:45;;;;;;;77.38;3.33;;;;;;;19.37;55.07;97886.13;7309912;19;130128;-42
2023/12/10 03:00:11;;;;;;;49.45;2.40;;;;;;;19.37;55.11;97909.56;7311968;19;130312;-38
2023/12/10 03:02:36;;;;;;;110.60;4.75;;;;;;;19.40;54.95;97906.63;7311802;19;129072;-39
2023/12/10 03:05:02;;;;;;;105.20;4.53;;;;;;;19.43;55.22;97911.53;7310447;19;129179;-41
2023/12/10 03:07:27;;;;;;;52.03;2.75;;;;;;;19.42;54.80;97920.31;7310385;19;130389;-39
2023/12/10 03:09:53;;;;;;;59.10;3.03;;;;;;;19.38;54.90;97895.56;7311139;19;130326;-38
2023/12/10 03:12:18;;;;;;;140.98;5.60;;;;;;;19.42;54.91;97914.28;7311083;19;128812;-39
2023/12/10 03:14:43;;;;;;;82.93;3.67;;;;;;;19.39;55.17;97910.22;7311428;19;129228;-42
2023/12/10 03:17:09;;;;;;;66.45;3.17;;;;;;;19.38;55.41;97919.03;7309470;19;130877;-39
2023/12/10 03:19:36;;;;;;;77.63;3.80;;;;;;;19.39;54.90;97920.66;7308598;19;130356;-39
2023/12/10 03:22:01;;;;;;;;;;;;;;;19.39;56.40;97931.06;7312230;19;130636;-41
2023/12/10 03:24:26;;;;;;;26.05;1.80;;;;;;;19.43;55.31;97924.56;7312994;19;129664;-39
2023/12/10 03:26:52;;;;;;;90.00;3.75;;;;;;;19.43;55.10;97929.78;7308297;19;129825;-41
2023/12/10 03:29:17;;;;;;;70.10;3.42;;;;;;;19.42;55.46;97943.75;7308038;19;130305;-38
2023/12/10 03:31:43;;;;;;;142.50;5.82;;;;;;;19.42;54.81;97941.16;7308585;19;129047;-38
2023/12/10 03:34:08;;;;;;;84.38;4.13;;;;;;;19.43;54.79;97941.97;7310787;19;129261;-41
2023/12/10 03:36:33;;;;;;;153.52;6.65;;;;;;;19.44;54.88;97952.22;7307693;19;131003;-39
2023/12/10 03:38:59;;;;;;;86.45;3.95;;;;;;;19.29;55.47;97925.22;7306408;19;130366;-42
2023/12/10 03:41:24;;;;;;;101.25;4.38;;;;;;;19.42;54.98;97955.97;7309780;19;129263;-40
2023/12/10 03:43:49;;;;;;;52.67;2.58;;;;;;;19.41;54.97;97968.22;7310332;19;129217;-40
2023/12/10 03:46:15;;;;;;;48.75;2.47;;;;;;;19.38;55.15;97965.94;7309801;19;131121;-40
2023/12/10 03:48:40;;;;;;;140.95;5.88;;;;;;;19.40;55.34;97963.16;7306646;19;129121;-42
2023/12/10 03:51:06;;;;;;;60.15;2.85;;;;;;;19.41;55.54;97964.78;7309168;19;128971;-42
2023/12/10 03:53:31;;;;;;;55.25;2.63;;;;;;;19.41;54.77;97975.19;7310209;19;129182;-41
2023/12/10 03:55:56;;;;;;;110.57;4.68;;;;;;;19.40;55.13;97976.97;7303958;19;129505;-41
2023/12/10 03:58:22;;;;;;;93.97;4.00;;;;;;;19.43;55.20;97987.09;7308682;19;130393;-39
2023/12/10 04:00:47;;;;;;;114.75;4.82;;;;;;;19.38;55.54;97992.00;7316543;19;129301;-38
2023/12/10 04:03:12;;;;;;;61.22;2.90;;;;;;;19.40;55.08;98002.25;7314282;19;129118;-39
2023/12/10 04:05:38;;;;;;;77.57;3.53;;;;;;;19.40;54.89;98008.25;7316738;19;130198;-36
2023/12/10 04:08:03;;;;;;;146.40;5.88;;;;;;;19.43;55.16;98005.34;7314810;19;130373;-40
2023/12/10 04:10:29;;;;;;;46.65;2.53;;;;;;;19.43;54.87;98014.94;7317386;19;129565;-41
2023/12/10 04:12:54;;;;;;;50.80;2.45;;;;;;;19.42;55.48;98016.72;7315547;19;128930;-38
2023/12/10 04:15:19;;;;;;;67.32;3.28;;;;;;;19.29;55.41;98003.38;7315349;19;131377;-40
2023/12/10 04:17:45;;;;;;;115.85;4.75;;;;;;;19.42;55.13;98024.53;7314479;19;130397;-40
2023/12/10 04:20:11;;;;;;;78.93;3.42;;;;;;;19.42;55.13;98024.53;7316864;19;129421;-39
2023/12/10 04:22:36;;;;;;;64.97;3.15;;;;;;;19.28;55.19;98012.16;7314780;19;129099;-41
2023/12/10 04:25:01;;;;;;;94.95;3.92;;;;;;;19.40;55.42;98036.91;7314429;19;130882;-39
2023/12/10 04:27:27;;;;;;;98.45;4.07;;;;;;;19.38;55.37;98032.88;7315276;19;129540;-43
2023/12/10 04:29:52;;;;;;;48.17;2.47;;;;;;;19.39;55.64;98040.50;7316221;19;128800;-38
2023/12/10 04:32:18;;;;;;;59.25;2.63;;;;;;;19.39;54.99;98043.13;7316251;19;129440;-39
2023/12/10 04:34:43;;;;;;;160.25;6.63;;;;;;;19.37;55.15;98042.47;7313563;19;130219;-40
2023/12/10 04:37:09;;;;;;;64.75;3.17;;;;;;;19.22;55.06;98025.81;7315757;19;130435;-41
2023/12/10 04:39:34;;;;;;;69.60;3.25;;;;;;;19.39;55.28;98050.94;7313443;19;128886;-39
2023/12/10 04:41:59;;;;;;;51.78;2.42;;;;;;;19.36;55.40;98051.28;7315375;19;129472;-38
2023/12/10 04:44:25;;;;;;;116.50;4.78;;;;;;;19.34;55.72;98061.03;7315090;19;130039;-42
2023/12/10 04:46:51;;;;;;;84.63;4.00;;;;;;;19.37;55.80;98063.31;7314928;19;130307;-39
2023/12/10 04:49:16;;;;;;;72.17;3.40;;;;;;;19.35;55.41;98065.25;7313192;19;128876;-40
2023/12/10 04:51:42;;;;;;;89.25;3.65;;;;;;;19.36;55.61;98077.31;7315423;19;129441;-37
2023/12/10 04:54:07;;;;;;;155.05;5.97;;;;;;;19.33;55.84;98067.22;7315307;19;130059;-43
2023/12/10 04:56:33;;;;;;;103.68;4.50;;;;;;;19.34;55.74;98068.84;7315126;19;131136;-39
2023/12/10 04:58:59;;;;;;;64.23;2.97;;;;;;;19.37;55.36;98073.72;7311986;19;129123;-38
2023/12/10 05:01:24;;;;;;;120.35;4.88;;;;;;;19.35;55.38;98085.31;7313306;19;130058;-40
2023/12/10 05:03:50;;;;;;;123.38;5.00;;;;;;;19.36;55.19;98087.75;7313940;19;129466;-42
2023/12/10 05:06:16;;;;;;;96.07;4.43;;;;;;;19.32;55.15;98090.84;7314930;19;131091;-41
2023/12/10 05:08:42;;;;;;;89.93;3.70;;;;;;;19.38;55.18;98095.41;7311014;19;129333;-44
2023/12/10 05:11:07;;;;;;;105.38;4.28;;;;;;;19.36;55.33;98097.34;7311833;19;128839;-39
2023/12/10 05:13:33;;;;;;;84.85;3.63;;;;;;;19.37;55.46;98109.38;7315214;19;130592;-41
2023/12/10 05:15:58;;;;;;;50.92;2.45;;;;;;;19.36;55.62;98110.38;7315210;19;131035;-39
2023/12/10 05:18:23;;;;;;;60.08;3.13;;;;;;;19.20;55.09;98090.31;7312662;19;129290;-38
2023/12/10 05:20:49;;;;;;;121.50;4.90;;;;;;;19.36;55.25;98119.03;7313397;19;129045;-40
2023/12/10 05:23:14;;;;;;;79.65;3.58;;;;;;;19.36;55.79;98126.84;7315529;19;129075;-40
2023/12/10 05:25:40;;;;;;;67.70;3.00;;;;;;;19.35;55.72;98122.59;7315005;19;129742;-39
2023/12/10 05:28:05;;;;;;;67.05;2.95;;;;;;;19.21;55.17;98104.97;7312700;19;129071;-38
2023/12/10 05:30:31;;;;;;;155.75;6.03;;;;;;;19.37;55.45;98141.47;7313646;19;128992;-42
2023/12/10 05:32:56;;;;;;;64.88;3.13;;;;;;;19.36;55.14;98134.66;7314086;19;130830;-42
2023/12/10 05:35:21;;;;;;;52.45;2.25;;;;;;;19.37;55.77;98141.47;7314416;19;131542;-41
2023/12/10 05:37:47;;;;;;;62.75;2.92;;;;;;;19.33;55.83;98140.19;7312845;19;130724;-39
2023/12/10 05:40:12;;;;;;;146.85;5.65;;;;;;;19.39;55.33;98154.34;7314454;19;129054;-41
2023/12/10 05:42:38;;;;;;;85.53;3.78;;;;;;;19.38;55.39;98156.16;7313732;19;130329;-40
2023/12/10 05:45:04;;;;;;;46.05;2.10;;;;;;;19.39;55.61;98159.56;7312842;19;130412;-39
2023/12/10 05:47:30;;;;;;;59.70;2.83;;;;;;;19.32;55.13;98162.00;7312441;19;128831;-39
2023/12/10 05:49:56;;;;;;;109.60;4.45;;;;;;;19.31;55.69;98160.38;7314094;19;129070;-42
2023/12/10 05:52:21;;;;;;;80.60;3.60;;;;;;;19.32;55.75;98169.81;7313966;19;131759;-37
2023/12/10 05:54:46;;;;;;;66.90;2.97;;;;;;;19.22;55.53;98137.03;7311701;19;131031;-42
2023/12/10 05:57:12;;;;;;;100.13;4.38;;;;;;;19.32;55.44;98148.97;7312663;19;128851;-38
2023/12/10 05:59:37;;;;;;;82.57;3.42;;;;;;;19.34;55.73;98156.63;7311196;19;129087;-42
2023/12/10 06:02:03;;;;;;;52.10;2.53;;;;;;;19.33;55.43;98160.22;7312953;19;130327;-41
2023/12/10 06:04:28;;;;;;;99.57;4.20;;;;;;;19.31;55.52;98162.97;7312803;19;131001;-39
2023/12/10 06:06:54;;;;;;;102.05;4.20;;;;;;;19.34;55.39;98173.06;7308824;19;129975;-40
2023/12/10 06:09:19;;;;;;;91.93;3.95;;;;;;;19.33;55.63;98181.88;7308712;19;131941;-40
2023/12/10 06:11:45;;;;;;;69.10;3.17;;;;;;;19.34;55.33;98183.50;7314430;19;130229;-39
2023/12/10 06:14:10;;;;;;;32.38;1.70;;;;;;;19.36;55.11;98176.34;7312294;19;131116;-39
2023/12/10 06:16:35;;;;;;;182.60;7.25;;;;;;;19.33;55.31;98184.50;7310875;19;129089;-45
2023/12/10 06:19:01;;;;;;;76.03;3.42;;;;;;;19.36;55.46;98185.94;7311493;19;129463;-40
2023/12/10 06:21:26;;;;;;;47.10;2.20;;;;;;;19.37;55.78;98193.59;7312781;19;129806;-38
2023/12/10 06:23:51;;;;;;;91.03;3.83;;;;;;;19.37;55.60;98192.78;7311806;19;130313;-41
2023/12/10 06:26:18;;;;;;;161.77;6.25;;;;;;;19.33;55.46;98192.31;7311607;19;128771;-41
2023/12/10 06:28:43;;;;;;;79.28;3.55;;;;;;;19.35;56.06;98200.75;7307970;19;129224;-40
2023/12/10 06:31:09;;;;;;;50.20;2.15;;;;;;;19.37;54.96;98192.78;7311161;19;130951;-38
2023/12/10 06:33:34;;;;;;;114.47;4.78;;;;;;;19.32;55.79;98206.28;7307169;19;131028;-40
2023/12/10 06:36:00;;;;;;;97.13;3.88;;;;;;;19.39;55.38;98222.94;7312178;19;129269;-40
2023/12/10 06:38:25;;;;;;;47.17;2.22;;;;;;;19.33;55.85;98223.56;7311186;19;130363;-39
2023/12/10 06:40:51;;;;;;;54.35;2.55;;;;;;;19.34;55.63;98240.84;7310185;19;130524;-37
2023/12/10 06:43:17;;;;;;;83.57;3.53;;;;;;;19.35;55.36;98242.44;7311702;19;130413;-37
2023/12/10 06:45:42;;;;;;;149.27;5.85;;;;;;;19.37;55.48;98243.13;7311697;19;129047;-41
2023/12/10 06:48:07;;;;;;;63.88;2.70;;;;;;;19.35;55.27;98247.66;7307857;19;129424;-39
2023/12/10 06:50:33;;;;;;;100.18;4.13;;;;;;;19.33;55.46;98252.25;7309191;19;130213;-38
2023/12/10 06:53:01;;;;;;;84.85;3.42;;;;;;;19.34;55.83;98261.69;7308039;19;130606;-39
2023/12/10 06:55:26;;;;;;;144.32;5.63;;;;;;;19.19;55.65;98239.75;7312090;19;128952;-41
2023/12/10 06:57:53;;;;;;;97.72;4.15;;;;;;;19.26;55.77;98274.66;7308116;19;129121;-42
2023/12/10 07:00:19;;;;;;;50.23;2.33;;;;;;;19.27;55.46;98273.66;7309847;19;130341;-39
2023/12/10 07:02:45;;;;;;;;;;;;;;;19.30;56.66;98281.19;7309657;19;131297;-42
2023/12/10 07:05:10;;;;;;;59.75;2.70;;;;;;;19.29;55.43;98282.19;7311725;19;129367;-42
2023/12/10 07:07:35;;;;;;;65.28;2.72;;;;;;;19.32;55.60;98286.28;7308387;19;129095;-39
2023/12/10 07:10:01;;;;;;;91.55;3.83;;;;;;;19.32;55.58;98292.28;7307971;19;130154;-39
2023/12/10 07:12:26;;;;;;;123.03;4.85;;;;;;;19.21;54.87;98282.13;7310668;19;130383;-41
2023/12/10 07:14:52;;;;;;;74.03;3.45;;;;;;;19.31;55.18;98298.47;7308972;19;129954;-42
2023/12/10 07:17:17;;;;;;;66.85;2.97;;;;;;;19.33;55.52;98306.97;7309330;19;129186;-39
2023/12/10 07:19:42;;;;;;;36.67;2.03;;;;;;;19.27;54.98;98302.31;7307567;19;130095;-42
2023/12/10 07:22:08;;;;;;;119.28;4.72;;;;;;;19.33;55.16;98312.19;7310116;19;130190;-40
2023/12/10 07:24:33;;;;;;;98.60;4.13;;;;;;;19.31;55.61;98310.69;7310667;19;129261;-38
2023/12/10 07:26:59;;;;;;;72.35;3.08;;;;;;;19.27;55.25;98323.16;7307414;19;129413;-40
2023/12/10 07:29:26;;;;;;;61.22;2.67;;;;;;;19.28;55.61;98324.81;7307024;19;129521;-39
2023/12/10 07:31:51;;;;;;;180.75;7.10;;;;;;;19.28;55.95;98319.59;7307861;19;131098;-41
2023/12/10 07:34:16;;;;;;;51.67;2.38;;;;;;;19.30;55.34;98324.69;7314579;19;129600;-40
2023/12/10 07:36:42;;;;;;;111.93;4.85;;;;;;;19.30;55.75;98333.31;7313360;19;128973;-39
2023/12/10 07:39:09;;;;;;;119.03;4.93;;;;;;;19.30;55.24;98333.31;7313375;19;129754;-39
2023/12/10 07:41:34;;;;;;;113.88;4.47;;;;;;;19.19;55.46;98324.91;7316320;19;130204;-39
2023/12/10 07:44:00;;;;;;;59.30;2.75;;;;;;;19.31;56.19;98344.56;7317392;19;129471;-38
2023/12/10 07:46:25;;;;;;;147.93;6.63;;;;;;;19.27;56.23;98332.78;7313077;19;130421;-41
2023/12/10 07:48:51;;;;;;;107.18;4.38;;;;;;;19.19;56.36;98341.38;7312552;19;131315;-39
2023/12/10 07:51:16;;;;;;;103.80;4.22;;;;;;;19.19;55.73;98346.59;7314222;19;131246;-44
2023/12/10 07:53:42;;;;;;;54.42;2.38;;;;;;;19.22;55.59;98351.47;7317134;19;130154;-40
2023/12/10 07:56:09;;;;;;;71.82;3.38;;;;;;;19.22;55.23;98354.09;7314925;19;129166;-41
2023/12/10 07:58:35;;;;;;;227.63;9.35;;;;;;;19.26;54.45;98358.03;7307392;19;130983;-40
2023/12/10 08:01:00;;;;;;;170.02;7.22;;;;;;;19.24;54.78;98351.31;7308703;19;131785;-43
2023/12/10 08:03:25;;;;;;;91.28;3.88;;;;;;;19.28;54.26;98353.47;7310921;19;130955;-41
2023/12/10 08:05:51;;;;;;;136.35;5.90;;;;;;;19.31;54.43;98350.59;7310558;19;130166;-42
2023/12/10 08:08:16;;;;;;;199.88;7.88;;;;;;;19.29;54.39;98352.53;7303030;19;130235;-43
2023/12/10 08:10:42;;;;;;;103.05;4.43;;;;;;;19.28;54.55;98361.31;7304231;19;130435;-41
2023/12/10 08:13:08;;;;;;;138.73;5.90;;;;;;;19.19;54.32;98349.19;7305711;19;129730;-41
2023/12/10 08:15:33;;;;;;;89.93;4.00;;;;;;;19.29;54.49;98362.94;7306885;19;130387;-40
2023/12/10 08:17:58;;;;;;;238.15;9.50;;;;;;;19.32;53.89;98362.63;7309721;19;132478;-43
2023/12/10 08:20:24;;;;;;;155.00;6.50;;;;;;;19.28;53.95;98361.31;7306775;19;130436;-45
2023/12/10 08:22:49;;;;;;;135.05;5.95;;;;;;;19.32;54.11;98373.06;7303932;19;130895;-43
2023/12/10 08:25:15;;;;;;;133.70;5.78;;;;;;;19.30;54.53;98375.00;7303671;19;130113;-40
2023/12/10 08:27:41;;;;;;;142.32;6.15;;;;;;;19.29;54.42;98373.38;7299742;19;130330;-43
2023/12/10 08:30:07;;;;;;;149.70;6.43;;;;;;;19.30;54.21;98372.38;7305672;19;130555;-38
2023/12/10 08:32:33;;;;;;;264.90;10.83;;;;;;;19.28;53.99;98368.28;7301552;19;131544;-40
2023/12/10 08:34:58;;;;;;;172.23;7.05;;;;;;;19.31;53.69;98384.47;7302823;19;130581;-40
2023/12/10 08:37:24;;;;;;;175.00;7.40;;;;;;;19.32;54.33;98373.06;7297318;19;131016;-41
2023/12/10 08:39:49;;;;;;;105.15;4.63;;;;;;;19.31;54.50;98371.44;7301963;19;131532;-39
2023/12/10 08:42:15;;;;;;;119.35;5.35;;;;;;;19.32;53.94;98377.47;7308082;19;130034;-38
2023/12/10 08:44:40;;;;;;;145.75;5.95;;;;;;;19.32;54.27;98383.47;7306498;19;129311;-43
2023/12/10 08:47:06;;;;;;;103.15;4.63;;;;;;;19.31;54.36;98383.66;7312339;19;131040;-38
2023/12/10 08:49:31;;;;;;;101.82;4.50;;;;;;;19.29;53.89;98378.59;7312316;19;131014;-39
2023/12/10 08:51:57;;;;;;;128.25;5.68;;;;;;;19.29;54.07;98375.16;7308133;19;130740;-40
2023/12/10 08:54:23;;;;;;;109.15;4.93;;;;;;;19.30;54.38;98388.03;7314932;19;129427;-41
2023/12/10 08:56:49;;;;;;;121.97;5.55;;;;;;;19.32;54.09;98388.69;7311126;19;130184;-39
2023/12/10 08:59:14;;;;;;;115.80;5.18;;;;;;;19.29;54.08;98381.19;7309057;19;129756;-40
2023/12/10 09:01:40;;;;;;;178.80;7.88;;;;;;;19.28;54.38;98387.34;7305136;19;129358;-38
2023/12/10 09:04:05;;;;;;;150.07;6.35;;;;;;;19.29;53.85;98388.19;7299707;19;130300;-40
2023/12/10 09:06:31;;;;;;;148.48;6.53;;;;;;;19.11;54.42;98363.94;7308405;19;131093;-40
2023/12/10 09:08:57;;;;;;;85.47;3.95;;;;;;;19.32;54.65;98388.69;7300926;19;132221;-40
2023/12/10 09:11:22;;;;;;;86.38;4.00;;;;;;;19.26;54.47;98396.28;7308963;19;129931;-42
2023/12/10 09:13:48;;;;;;;219.05;8.80;;;;;;;19.30;54.17;98401.06;7297706;19;130347;-41
2023/12/10 09:16:15;;;;;;;144.90;6.40;;;;;;;19.25;54.33;98394.66;7298170;19;131224;-42
2023/12/10 09:18:41;;;;;;;199.15;7.97;;;;;;;19.32;54.12;98419.97;7298561;19;130196;-44
2023/12/10 09:21:07;;;;;;;145.20;6.45;;;;;;;19.29;54.29;98412.47;7298507;19;130511;-40
2023/12/10 09:23:34;;;;;;;209.73;8.90;;;;;;;19.27;54.20;98414.38;7299155;19;130080;-42
2023/12/10 09:25:59;;;;;;;;;;;;;;;19.32;55.33;98413.97;7298071;19;130784;-42
2023/12/10 09:28:25;;;;;;;182.05;8.05;;;;;;;19.30;54.79;98416.69;7295628;19;130580;-40
2023/12/10 09:30:50;;;;;;;159.73;6.90;;;;;;;19.29;53.95;98415.06;7298598;19;130799;-37
2023/12/10 09:33:16;;;;;;;252.27;10.50;;;;;;;19.20;54.54;98397.72;7298282;19;130901;-42
2023/12/10 09:35:41;;;;;;;169.45;7.00;;;;;;;19.29;54.22;98415.06;7299235;19;131501;-39
2023/12/10 09:38:06;;;;;;;197.25;8.27;;;;;;;19.30;54.55;98416.69;7294821;19;131338;-42
2023/12/10 09:40:33;;;;;;;214.27;8.40;;;;;;;19.29;54.40;98419.44;7301539;19;130027;-40
2023/12/10 09:42:59;;;;;;;206.13;8.30;;;;;;;19.31;53.87;98415.75;7300448;19;130220;-42
2023/12/10 09:45:24;;;;;;;153.55;6.40;;;;;;;19.28;54.32;98423.84;7296208;19;130499;-41
2023/12/10 09:47:50;;;;;;;167.82;6.90;;;;;;;19.29;54.19;98425.50;7296008;19;130507;-39
2023/12/10 09:50:18;;;;;;;259.48;10.48;;;;;;;19.28;54.55;98431.66;7293301;19;129714;-41
2023/12/10 09:52:44;;;;;;;131.95;5.78;;;;;;;19.31;54.48;98422.72;7295973;19;130037;-43
2023/12/10 09:55:09;;;;;;;156.80;6.78;;;;;;;19.28;54.75;98423.84;7301915;19;130075;-39
2023/12/10 09:57:35;;;;;;;168.73;7.43;;;;;;;19.32;54.56;98419.16;7285594;19;133007;-41
2023/12/10 10:00:00;;;;;;;226.82;9.52;;;;;;;19.30;54.44;98428.91;7303184;19;129526;-43
2023/12/10 10:02:35;;;;;;;159.52;6.68;;;;;;;19.30;55.05;98427.13;7288403;19;131769;-42
2023/12/10 10:05:02;;;;;;;197.05;8.50;;;;;;;19.29;54.66;98428.09;7296789;19;130584;-41
2023/12/10 10:07:30;;;;;;;198.23;8.30;;;;;;;19.30;54.42;98431.53;7293341;19;130737;-43
2023/12/10 10:09:55;;;;;;;137.80;5.90;;;;;;;19.29;54.49;98437.69;7295856;19;131071;-42
2023/12/10 10:12:21;;;;;;;256.10;10.07;;;;;;;19.26;54.54;98438.81;7290462;19;130861;-42
2023/12/10 10:14:57;;;;;;;174.10;7.22;;;;;;;19.12;55.14;98413.28;7300197;19;130726;-44
2023/12/10 10:17:30;;;;;;;127.68;5.60;;;;;;;19.27;55.12;98439.63;7297914;19;130545;-42
2023/12/10 10:19:56;;;;;;;97.85;4.38;;;;;;;19.30;54.29;98442.75;7303152;19;129212;-39
2023/12/10 10:22:26;;;;;;;175.38;7.07;;;;;;;19.28;54.46;98436.88;7305422;19;129504;-42
2023/12/10 10:24:52;;;;;;;153.02;6.20;;;;;;;19.28;54.52;98442.06;7307840;19;130311;-40
2023/12/10 10:27:18;;;;;;;121.20;5.03;;;;;;;19.29;54.77;98445.50;7303601;19;130788;-42
2023/12/10 10:29:44;;;;;;;97.85;4.35;;;;;;;19.31;54.38;98438.38;7307055;19;129264;-40
2023/12/10 10:32:16;;;;;;;114.75;5.07;;;;;;;19.26;54.45;98436.19;7304838;19;129230;-41
2023/12/10 10:34:48;;;;;;;257.73;10.10;;;;;;;19.26;55.06;98441.41;7304322;19;130682;-40
2023/12/10 10:37:15;;;;;;;179.90;7.65;;;;;;;19.25;54.58;98444.16;7303905;19;131323;-39
2023/12/10 10:39:44;;;;;;;18.50;1.52;;;;;;;19.24;55.22;98445.94;7307279;19;129393;-40
2023/12/10 10:42:10;;;;;;;100.05;4.57;;;;;;;19.25;54.91;98442.34;7309315;19;129486;-39
2023/12/10 10:44:39;;;;;;;200.20;7.97;;;;;;;19.29;54.64;98451.53;7309695;19;131211;-41
2023/12/10 10:47:08;;;;;;;156.52;6.50;;;;;;;19.25;54.44;98444.16;7307818;19;130417;-40
2023/12/10 10:49:36;;;;;;;108.57;4.72;;;;;;;19.25;54.97;98455.38;7302161;19;131293;-39
2023/12/10 10:52:04;;;;;;;193.35;8.23;;;;;;;19.26;55.06;98454.44;7304564;19;129537;-40
2023/12/10 10:54:31;;;;;;;170.30;6.90;;;;;;;19.25;54.66;98452.78;7303787;19;130404;-40
2023/12/10 10:56:57;;;;;;;111.47;4.82;;;;;;;19.19;55.54;98461.22;7303600;19;130318;-39
2023/12/10 10:59:32;;;;;;;78.32;3.80;;;;;;;19.23;55.36;98459.94;7305619;19;131423;-39
2023/12/10 11:02:02;;;;;;;83.90;3.83;;;;;;;19.11;55.27;98429.06;7306873;19;129063;-38
2023/12/10 11:04:40;;;;;;;106.10;4.68;;;;;;;19.24;55.26;98452.94;7308660;19;131303;-41
2023/12/10 11:07:06;;;;;;;113.20;4.57;;;;;;;19.25;54.91;98455.38;7306470;19;130468;-39
2023/12/10 11:09:52;;;;;;;105.97;4.57;;;;;;;19.25;55.23;98444.97;7304508;19;130842;-46